createdAt,value
2022-09-30T00:00:01.864Z,10.68
2022-09-30T00:02:36.533Z,9.85
2022-09-30T00:05:05.072Z,11.95
2022-09-30T00:07:33.211Z,8.93
2022-09-30T00:10:00.965Z,10.50
2022-09-30T00:12:28.743Z,11.60
2022-09-30T00:14:56.656Z,12.95
2022-09-30T00:17:28.309Z,14.80
2022-09-30T00:19:56.233Z,13.40
2022-09-30T00:22:23.951Z,10.77
2022-09-30T00:24:51.857Z,8.02
2022-09-30T00:27:20.007Z,10.82
2022-09-30T00:29:47.803Z,10.77
2022-09-30T00:32:15.586Z,11.90
2022-09-30T00:34:44.845Z,9.35
2022-09-30T00:37:15.486Z,8.93
2022-09-30T00:39:43.309Z,9.73
2022-09-30T00:42:13.618Z,9.65
2022-09-30T00:44:51.121Z,9.68
2022-09-30T00:47:37.563Z,11.90
2022-09-30T00:50:14.783Z,11.13
2022-09-30T00:52:43.186Z,9.93
2022-09-30T00:55:16.557Z,9.70
2022-09-30T00:57:44.328Z,9.85
2022-09-30T01:00:12.215Z,10.13
2022-09-30T01:02:41.138Z,11.23
2022-09-30T01:05:11.530Z,12.50
2022-09-30T01:07:39.331Z,10.68
2022-09-30T01:12:35.081Z,11.10
2022-09-30T01:15:03.345Z,11.00
2022-09-30T01:17:38.378Z,9.93
2022-09-30T01:20:36.358Z,12.07
2022-09-30T01:23:15.760Z,11.05
2022-09-30T01:26:01.130Z,11.82
2022-09-30T01:28:43.697Z,10.98
2022-09-30T01:31:22.377Z,11.57
2022-09-30T01:33:54.409Z,10.40
2022-09-30T01:36:39.617Z,11.48
2022-09-30T01:39:13.646Z,11.48
2022-09-30T01:41:45.888Z,10.70
2022-09-30T01:44:15.096Z,10.45
2022-09-30T01:46:46.589Z,9.57
2022-09-30T01:49:19.620Z,10.05
2022-09-30T01:51:53.451Z,12.07
2022-09-30T01:54:23.056Z,15.38
2022-09-30T01:56:52.166Z,12.73
2022-09-30T01:59:22.320Z,11.95
2022-09-30T02:01:54.667Z,11.38
2022-09-30T02:04:26.370Z,11.43
2022-09-30T02:06:55.400Z,14.18
2022-09-30T02:09:26.072Z,12.43
2022-09-30T02:11:56.078Z,10.40
2022-09-30T02:14:27.565Z,12.38
2022-09-30T02:17:02.404Z,10.65
2022-09-30T02:19:37.263Z,10.32
2022-09-30T02:22:13.338Z,10.82
2022-09-30T02:24:43.993Z,13.98
2022-09-30T02:27:13.688Z,10.98
2022-09-30T02:29:45.168Z,11.70
2022-09-30T02:32:16.761Z,9.05
2022-09-30T02:34:46.606Z,10.10
2022-09-30T02:37:19.192Z,10.57
2022-09-30T02:39:49.236Z,11.20
2022-09-30T02:42:20.671Z,12.13
2022-09-30T02:44:49.291Z,9.43
2022-09-30T02:47:23.425Z,11.35
2022-09-30T02:49:54.826Z,10.65
2022-09-30T02:52:26.666Z,10.15
2022-09-30T02:55:00.709Z,9.52
2022-09-30T02:57:33.967Z,11.43
2022-09-30T03:00:03.592Z,10.25
2022-09-30T03:02:33.905Z,10.88
2022-09-30T03:05:01.944Z,10.18
2022-09-30T03:07:30.348Z,10.90
2022-09-30T03:09:58.812Z,9.70
2022-09-30T03:12:31.055Z,11.93
2022-09-30T03:15:05.941Z,11.77
2022-09-30T03:17:41.119Z,12.90
2022-09-30T03:20:13.872Z,12.25
2022-09-30T03:22:48.790Z,11.32
2022-09-30T03:25:23.157Z,9.70
2022-09-30T03:28:00.264Z,8.40
2022-09-30T03:30:30.379Z,10.23
2022-09-30T03:33:05.258Z,11.48
2022-09-30T03:35:39.242Z,11.43
2022-09-30T03:38:13.948Z,10.32
2022-09-30T03:40:45.637Z,12.57
2022-09-30T03:43:18.548Z,16.45
2022-09-30T03:45:48.106Z,15.50
2022-09-30T03:48:17.338Z,12.07
2022-09-30T03:50:45.330Z,10.35
2022-09-30T03:53:13.832Z,10.90
2022-09-30T03:55:47.895Z,10.07
2022-09-30T03:58:16.368Z,11.52
2022-09-30T04:00:47.152Z,11.55
2022-09-30T04:03:15.164Z,11.38
2022-09-30T04:05:44.481Z,12.70
2022-09-30T04:08:12.776Z,13.02
2022-09-30T04:10:43.850Z,13.48
2022-09-30T04:13:11.923Z,14.10
2022-09-30T04:15:40.621Z,13.98
2022-09-30T04:18:08.784Z,15.48
2022-09-30T04:20:36.587Z,12.82
2022-09-30T04:23:05.672Z,13.95
2022-09-30T04:25:33.406Z,13.75
2022-09-30T04:28:01.201Z,16.63
2022-09-30T04:30:33.301Z,10.57
2022-09-30T04:33:01.520Z,12.18
2022-09-30T04:35:30.216Z,12.23
2022-09-30T04:37:57.969Z,11.70
2022-09-30T04:40:27.296Z,34.35
2022-09-30T04:42:57.077Z,14.23
2022-09-30T04:45:25.232Z,11.45
2022-09-30T04:47:53.035Z,11.20
2022-09-30T04:50:21.052Z,11.63
2022-09-30T04:52:56.256Z,13.88
2022-09-30T04:55:25.049Z,12.55
2022-09-30T04:57:54.199Z,14.88
2022-09-30T05:00:21.956Z,12.30
2022-09-30T05:02:49.729Z,11.38
2022-09-30T05:05:17.990Z,12.77
2022-09-30T05:07:45.722Z,14.05
2022-09-30T05:10:14.661Z,13.88
2022-09-30T05:12:42.419Z,15.32
2022-09-30T05:15:12.069Z,14.70
2022-09-30T05:17:39.897Z,16.17
2022-09-30T05:20:10.888Z,26.65
2022-09-30T05:22:39.320Z,24.77
2022-09-30T05:25:07.806Z,14.50
2022-09-30T05:27:35.719Z,14.52
2022-09-30T05:30:04.047Z,14.75
2022-09-30T05:32:33.720Z,15.82
2022-09-30T05:35:03.571Z,14.73
2022-09-30T05:37:31.478Z,15.02
2022-09-30T05:39:59.416Z,12.23
2022-09-30T05:42:27.581Z,14.68
2022-09-30T05:44:55.333Z,12.07
2022-09-30T05:47:24.103Z,11.02
2022-09-30T05:49:56.101Z,13.85
2022-09-30T05:52:25.748Z,14.15
2022-09-30T05:54:55.627Z,13.30
2022-09-30T05:57:26.278Z,12.40
2022-09-30T05:59:54.146Z,11.55
2022-09-30T06:02:22.616Z,11.65
2022-09-30T06:04:50.695Z,12.88
2022-09-30T06:07:19.904Z,14.95
2022-09-30T06:09:47.836Z,12.88
2022-09-30T06:12:16.262Z,13.85
2022-09-30T06:14:44.546Z,12.88
2022-09-30T06:17:12.514Z,12.75
2022-09-30T06:19:40.755Z,18.23
2022-09-30T06:22:08.516Z,14.85
2022-09-30T06:24:37.723Z,15.07
2022-09-30T06:27:05.528Z,21.90
2022-09-30T06:29:33.411Z,14.50
2022-09-30T06:32:02.456Z,11.77
2022-09-30T06:34:30.239Z,10.35
2022-09-30T06:36:57.991Z,10.20
2022-09-30T06:39:27.146Z,9.98
2022-09-30T06:41:56.606Z,9.90
2022-09-30T06:44:27.173Z,20.10
2022-09-30T06:46:55.697Z,10.73
2022-09-30T06:49:24.875Z,14.07
2022-09-30T06:51:52.855Z,11.95
2022-09-30T06:54:21.933Z,9.55
2022-09-30T06:56:49.778Z,8.65
2022-09-30T06:59:20.156Z,8.93
2022-09-30T07:01:47.983Z,8.98
2022-09-30T07:04:16.336Z,8.40
2022-09-30T07:06:44.149Z,8.57
2022-09-30T07:09:12.198Z,7.97
2022-09-30T07:11:40.097Z,11.45
2022-09-30T07:14:08.369Z,8.98
2022-09-30T07:16:38.611Z,11.15
2022-09-30T07:19:10.240Z,11.05
2022-09-30T07:21:38.132Z,10.98
2022-09-30T07:24:06.028Z,12.05
2022-09-30T07:26:34.061Z,10.57
2022-09-30T07:29:02.470Z,10.10
2022-09-30T07:31:33.657Z,10.73
2022-09-30T07:34:07.123Z,14.00
2022-09-30T07:36:37.549Z,13.85
2022-09-30T07:39:07.592Z,12.48
2022-09-30T07:41:36.641Z,11.07
2022-09-30T07:44:06.434Z,13.40
2022-09-30T07:46:36.318Z,13.07
2022-09-30T07:49:08.802Z,12.02
2022-09-30T07:51:37.937Z,11.82
2022-09-30T07:54:07.757Z,11.88
2022-09-30T07:57:05.131Z,10.77
2022-09-30T07:59:27.670Z,10.13
2022-09-30T08:01:55.685Z,12.15
2022-09-30T08:04:25.671Z,8.88
2022-09-30T08:06:54.429Z,9.07
2022-09-30T08:09:23.362Z,10.05
2022-09-30T08:11:51.611Z,9.15
2022-09-30T08:14:19.883Z,7.75
2022-09-30T08:16:47.973Z,8.75
2022-09-30T08:19:17.071Z,10.48
2022-09-30T08:21:47.142Z,8.50
2022-09-30T08:24:15.446Z,8.13
2022-09-30T08:26:43.814Z,9.95
2022-09-30T08:29:20.111Z,10.77
2022-09-30T08:31:48.896Z,9.60
2022-09-30T08:34:17.687Z,10.98
2022-09-30T08:36:47.232Z,14.00
2022-09-30T08:39:15.586Z,12.27
2022-09-30T08:42:09.254Z,14.65
2022-09-30T08:44:48.591Z,16.75
2022-09-30T08:47:28.256Z,15.75
2022-09-30T08:50:03.561Z,14.20
2022-09-30T08:52:45.022Z,15.20
2022-09-30T08:55:20.296Z,12.98
2022-09-30T08:57:48.311Z,14.65
2022-09-30T09:00:17.309Z,17.00
2022-09-30T09:02:47.187Z,15.18
2022-09-30T09:05:18.865Z,13.65
2022-09-30T09:07:52.225Z,13.20
2022-09-30T09:10:25.895Z,11.48
2022-09-30T09:12:57.769Z,11.68
2022-09-30T09:15:31.483Z,12.10
2022-09-30T09:18:24.094Z,18.02
2022-09-30T09:20:55.491Z,14.90
2022-09-30T09:23:25.188Z,12.75
2022-09-30T09:25:55.665Z,9.48
2022-09-30T09:28:27.205Z,16.25
2022-09-30T09:30:57.174Z,10.77
2022-09-30T09:33:29.503Z,14.77
2022-09-30T09:36:02.670Z,10.75
2022-09-30T09:38:36.059Z,9.85
2022-09-30T09:41:09.291Z,13.48
2022-09-30T09:43:46.174Z,8.93
2022-09-30T09:46:21.188Z,6.22
2022-09-30T09:48:49.022Z,3.95
2022-09-30T09:53:53.005Z,6.53
2022-09-30T09:56:21.822Z,5.43
2022-09-30T09:59:06.248Z,8.23
2022-09-30T10:01:34.460Z,6.72
2022-09-30T10:04:11.468Z,7.88
2022-09-30T10:06:47.331Z,4.43
2022-09-30T10:09:27.062Z,4.82
2022-09-30T10:12:18.583Z,5.22
2022-09-30T10:14:50.626Z,5.82
2022-09-30T10:17:20.234Z,5.45
2022-09-30T10:19:51.947Z,3.92
2022-09-30T10:22:20.897Z,5.43
2022-09-30T10:24:58.155Z,4.95
2022-09-30T10:27:29.341Z,4.07
2022-09-30T10:29:57.312Z,4.70
2022-09-30T10:32:25.849Z,4.13
2022-09-30T10:34:56.775Z,6.30
2022-09-30T10:37:25.212Z,3.97
2022-09-30T10:39:57.490Z,8.35
2022-09-30T10:42:27.143Z,7.45
2022-09-30T10:45:04.385Z,3.83
2022-09-30T10:47:36.599Z,6.80
2022-09-30T10:50:07.195Z,3.03
2022-09-30T10:52:36.885Z,4.15
2022-09-30T10:55:14.691Z,9.90
2022-09-30T10:57:44.817Z,4.05
2022-09-30T11:00:15.616Z,8.50
2022-09-30T11:02:48.270Z,7.85
2022-09-30T11:05:22.491Z,5.68
2022-09-30T11:07:54.513Z,6.28
2022-09-30T11:10:33.247Z,5.45
2022-09-30T11:13:05.222Z,8.10
2022-09-30T11:15:35.151Z,4.07
2022-09-30T11:18:06.009Z,2.65
2022-09-30T11:20:36.254Z,4.32
2022-09-30T11:23:06.643Z,6.05
2022-09-30T11:25:41.890Z,3.63
2022-09-30T11:28:18.834Z,2.67
2022-09-30T11:30:52.640Z,4.03
2022-09-30T11:33:28.597Z,5.68
2022-09-30T11:36:01.400Z,5.30
2022-09-30T11:38:43.956Z,5.93
2022-09-30T11:41:18.708Z,8.65
2022-09-30T11:43:52.392Z,4.70
2022-09-30T11:46:30.617Z,5.63
2022-09-30T11:51:29.558Z,3.25
2022-09-30T11:54:04.721Z,2.58
2022-09-30T11:56:39.622Z,5.15
2022-09-30T11:59:19.268Z,2.70
2022-09-30T12:01:57.343Z,5.50
2022-09-30T12:04:29.434Z,1.65
2022-09-30T12:06:58.677Z,2.78
2022-09-30T12:09:28.016Z,4.30
2022-09-30T12:11:59.222Z,5.43
2022-09-30T12:14:30.697Z,3.92
2022-09-30T12:17:01.285Z,7.82
2022-09-30T12:19:31.371Z,3.47
2022-09-30T12:22:01.738Z,0.80
2022-09-30T12:24:32.746Z,3.83
2022-09-30T12:27:02.726Z,2.60
2022-09-30T12:29:49.651Z,2.10
2022-09-30T12:32:26.375Z,3.47
2022-09-30T12:35:02.118Z,2.42
2022-09-30T12:37:38.658Z,0.77
2022-09-30T12:40:25.065Z,2.38
2022-09-30T12:43:11.455Z,2.05
2022-09-30T12:46:12.649Z,0.68
2022-09-30T12:48:43.639Z,1.80
2022-09-30T12:51:22.467Z,1.63
2022-09-30T12:53:51.901Z,2.92
2022-09-30T12:56:20.053Z,0.60
2022-09-30T12:58:49.130Z,0.88
2022-09-30T13:01:18.919Z,1.55
2022-09-30T13:03:50.586Z,1.15
2022-09-30T13:06:21.088Z,1.15
2022-09-30T13:09:03.973Z,1.83
2022-09-30T13:11:37.535Z,1.52
2022-09-30T13:14:14.820Z,3.30
2022-09-30T13:17:02.627Z,1.90
2022-09-30T13:19:36.566Z,1.33
2022-09-30T13:22:29.606Z,1.00
2022-09-30T13:25:12.438Z,1.77
2022-09-30T13:27:41.635Z,5.45
2022-09-30T13:30:25.821Z,1.80
2022-09-30T13:33:07.565Z,2.13
2022-09-30T13:35:38.320Z,2.45
2022-09-30T13:38:17.570Z,1.88
2022-09-30T13:41:01.906Z,9.75
2022-09-30T13:43:36.027Z,1.60
2022-09-30T13:46:07.404Z,1.67
2022-09-30T13:48:36.511Z,1.83
2022-09-30T13:51:08.278Z,5.18
2022-09-30T13:53:39.287Z,3.33
2022-09-30T13:56:08.905Z,1.48
2022-09-30T13:58:43.432Z,4.22
2022-09-30T14:01:14.669Z,2.15
2022-09-30T14:03:51.256Z,3.90
2022-09-30T14:06:28.648Z,3.45
2022-09-30T14:09:06.435Z,8.30
2022-09-30T14:11:47.798Z,1.67
2022-09-30T14:14:26.143Z,3.17
2022-09-30T14:17:03.613Z,2.33
2022-09-30T14:19:40.422Z,3.65
2022-09-30T14:22:12.682Z,3.40
2022-09-30T14:24:40.989Z,2.05
2022-09-30T14:27:15.869Z,3.22
2022-09-30T14:29:47.686Z,2.95
2022-09-30T14:32:19.833Z,1.58
2022-09-30T14:34:48.278Z,1.20
2022-09-30T14:37:20.044Z,5.75
2022-09-30T14:39:49.457Z,10.57
2022-09-30T14:42:24.480Z,3.47
2022-09-30T14:44:54.362Z,1.48
2022-09-30T14:47:22.980Z,3.00
2022-09-30T14:49:51.412Z,1.25
2022-09-30T14:52:45.387Z,2.88
2022-09-30T14:55:27.314Z,1.23
2022-09-30T14:57:56.295Z,1.73
2022-09-30T15:00:29.216Z,2.08
2022-09-30T15:02:57.412Z,1.63
2022-09-30T15:05:29.017Z,1.23
2022-09-30T15:07:58.488Z,1.15
2022-09-30T15:10:26.782Z,2.75
2022-09-30T15:12:56.295Z,3.35
2022-09-30T15:15:28.745Z,1.15
2022-09-30T15:17:57.006Z,2.30
2022-09-30T15:20:27.870Z,1.63
2022-09-30T15:22:58.943Z,3.92
2022-09-30T15:25:29.016Z,14.77
2022-09-30T15:27:58.136Z,3.38
2022-09-30T15:30:29.119Z,1.52
2022-09-30T15:33:01.442Z,7.20
2022-09-30T15:35:29.879Z,2.05
2022-09-30T15:38:07.225Z,4.43
2022-09-30T15:40:50.046Z,2.22
2022-09-30T15:43:32.918Z,3.17
2022-09-30T15:46:16.735Z,3.17
2022-09-30T15:48:45.310Z,3.70
2022-09-30T15:51:46.565Z,3.78
2022-09-30T15:54:29.018Z,6.30
2022-09-30T15:57:01.051Z,5.35
2022-09-30T15:59:50.020Z,2.65
2022-09-30T16:02:18.861Z,3.25
2022-09-30T16:04:58.855Z,2.40
2022-09-30T16:07:29.553Z,2.28
2022-09-30T16:10:00.435Z,2.75
2022-09-30T16:12:31.325Z,1.80
2022-09-30T16:15:00.679Z,2.65
2022-09-30T16:17:31.168Z,3.05
2022-09-30T16:19:59.714Z,2.80
2022-09-30T16:22:49.303Z,2.15
2022-09-30T16:25:19.921Z,2.22
2022-09-30T16:27:49.510Z,2.88
2022-09-30T16:30:18.215Z,5.65
2022-09-30T16:32:48.860Z,5.13
2022-09-30T16:35:18.393Z,9.30
2022-09-30T16:37:46.288Z,4.90
2022-09-30T16:40:19.820Z,4.35
2022-09-30T16:42:49.244Z,5.60
2022-09-30T16:45:20.008Z,4.15
2022-09-30T16:47:48.223Z,6.85
2022-09-30T16:50:17.981Z,5.53
2022-09-30T16:52:45.736Z,3.33
2022-09-30T16:55:13.615Z,4.82
2022-09-30T16:57:41.387Z,2.85
2022-09-30T17:00:12.601Z,5.32
2022-09-30T17:02:40.828Z,3.08
2022-09-30T17:05:13.248Z,5.22
2022-09-30T17:07:41.221Z,7.85
2022-09-30T17:10:10.622Z,5.80
2022-09-30T17:12:45.996Z,6.57
2022-09-30T17:15:15.271Z,5.18
2022-09-30T17:17:43.691Z,6.20
2022-09-30T17:20:11.800Z,4.35
2022-09-30T17:22:39.736Z,5.30
2022-09-30T17:25:08.273Z,4.57
2022-09-30T17:27:43.571Z,8.02
2022-09-30T17:30:11.767Z,7.50
2022-09-30T17:32:42.497Z,6.97
2022-09-30T17:35:10.763Z,4.45
2022-09-30T17:37:42.441Z,5.88
2022-09-30T17:40:30.679Z,9.52
2022-09-30T17:43:11.580Z,3.83
2022-09-30T17:45:43.236Z,10.60
2022-09-30T17:48:13.320Z,5.55
2022-09-30T17:50:42.304Z,7.50
2022-09-30T17:53:13.024Z,4.85
2022-09-30T17:55:41.277Z,5.07
2022-09-30T17:58:10.430Z,5.03
2022-09-30T18:00:38.413Z,7.18
2022-09-30T18:03:09.315Z,7.97
2022-09-30T18:05:38.998Z,6.70
2022-09-30T18:08:07.112Z,6.05
2022-09-30T18:10:38.010Z,7.35
2022-09-30T18:13:06.121Z,9.55
2022-09-30T18:15:37.392Z,10.63
2022-09-30T18:18:05.256Z,7.90
2022-09-30T18:20:33.378Z,6.70
2022-09-30T18:23:02.502Z,6.78
2022-09-30T18:25:30.508Z,9.20
2022-09-30T18:27:59.574Z,7.10
2022-09-30T18:30:28.008Z,8.40
2022-09-30T18:32:56.325Z,8.38
2022-09-30T18:35:24.788Z,8.07
2022-09-30T18:37:53.143Z,12.60
2022-09-30T18:40:23.827Z,8.00
2022-09-30T18:43:03.578Z,8.27
2022-09-30T18:45:32.531Z,10.82
2022-09-30T18:48:01.432Z,10.85
2022-09-30T18:50:30.203Z,15.85
2022-09-30T18:52:58.691Z,51.13
2022-09-30T18:55:29.877Z,34.13
2022-09-30T18:57:58.360Z,49.03
2022-09-30T19:00:31.236Z,33.13
2022-09-30T19:02:59.280Z,24.23
2022-09-30T19:05:27.209Z,13.38
2022-09-30T19:07:56.136Z,9.27
2022-09-30T19:10:26.828Z,8.23
2022-09-30T19:12:55.959Z,12.50
2022-09-30T19:15:26.248Z,14.35
2022-09-30T19:17:54.166Z,7.32
2022-09-30T19:20:22.733Z,7.40
2022-09-30T19:22:52.009Z,9.57
2022-09-30T19:25:19.923Z,6.88
2022-09-30T19:27:49.568Z,12.35
2022-09-30T19:30:19.721Z,12.88
2022-09-30T19:32:47.648Z,7.80
2022-09-30T19:35:17.256Z,7.40
2022-09-30T19:37:59.561Z,8.57
2022-09-30T19:42:59.920Z,12.60
2022-09-30T19:45:31.509Z,21.13
2022-09-30T19:47:59.637Z,9.90
2022-09-30T19:50:27.449Z,11.57
2022-09-30T19:52:57.675Z,10.13
2022-09-30T19:55:25.993Z,9.60
2022-09-30T19:57:54.257Z,9.45
2022-09-30T20:00:22.037Z,8.82
2022-09-30T20:02:52.715Z,10.00
2022-09-30T20:05:20.690Z,11.52
2022-09-30T20:07:51.151Z,6.78
2022-09-30T20:10:19.530Z,8.40
2022-09-30T20:12:47.399Z,9.63
2022-09-30T20:15:32.892Z,7.88
2022-09-30T20:18:02.067Z,7.45
2022-09-30T20:20:37.441Z,8.65
2022-09-30T20:23:05.423Z,12.13
2022-09-30T20:25:34.882Z,11.35
2022-09-30T20:28:05.255Z,7.40
2022-09-30T20:30:33.894Z,42.95
2022-09-30T20:33:03.287Z,19.58
2022-09-30T20:35:31.064Z,15.48
2022-09-30T20:37:59.019Z,14.95
2022-09-30T20:40:26.992Z,14.38
2022-09-30T20:42:59.306Z,8.27
2022-09-30T20:45:29.144Z,11.07
2022-09-30T20:47:58.338Z,10.35
2022-09-30T20:50:36.639Z,11.93
2022-09-30T20:53:05.444Z,10.10
2022-09-30T20:55:34.694Z,12.23
2022-09-30T20:58:02.565Z,11.20
2022-09-30T21:00:31.249Z,13.95
2022-09-30T21:02:59.078Z,13.10
2022-09-30T21:05:31.120Z,14.15
2022-09-30T21:08:07.400Z,13.43
2022-09-30T21:10:36.284Z,12.43
2022-09-30T21:13:16.054Z,11.85
2022-09-30T21:15:44.055Z,10.93
2022-09-30T21:18:12.195Z,14.00
2022-09-30T21:20:41.364Z,14.85
2022-09-30T21:23:09.133Z,11.55
2022-09-30T21:25:36.908Z,13.05
2022-09-30T21:28:05.045Z,10.15
2022-09-30T21:30:32.823Z,10.55
2022-09-30T21:33:00.647Z,8.63
2022-09-30T21:35:28.475Z,14.20
2022-09-30T21:37:57.666Z,22.23
2022-09-30T21:40:25.483Z,40.08
2022-09-30T21:42:53.276Z,22.73
2022-09-30T21:45:21.620Z,17.23
2022-09-30T21:47:49.939Z,8.00
2022-09-30T21:50:17.714Z,8.45
2022-09-30T21:52:45.559Z,11.30
2022-09-30T21:55:15.044Z,9.27
2022-09-30T21:57:43.406Z,8.75
2022-09-30T22:00:11.923Z,10.10
2022-09-30T22:02:41.606Z,9.93
2022-09-30T22:05:09.987Z,10.32
2022-09-30T22:07:38.128Z,10.75
2022-09-30T22:10:06.400Z,9.63
2022-09-30T22:12:35.608Z,9.35
2022-09-30T22:15:03.431Z,11.02
2022-09-30T22:17:31.161Z,14.95
2022-09-30T22:19:59.064Z,11.57
2022-09-30T22:22:27.065Z,11.23
2022-09-30T22:24:55.044Z,11.27
2022-09-30T22:27:23.123Z,13.50
2022-09-30T22:29:52.930Z,13.68
2022-09-30T22:32:20.719Z,9.50
2022-09-30T22:35:05.992Z,14.20
2022-09-30T22:37:51.762Z,8.90
2022-09-30T22:40:19.616Z,9.55
2022-09-30T22:42:49.039Z,9.05
2022-09-30T22:45:18.243Z,10.50
2022-09-30T22:47:46.074Z,8.40
2022-09-30T22:50:13.957Z,11.23
2022-09-30T22:52:41.769Z,13.20
2022-09-30T22:55:09.949Z,28.80
2022-09-30T22:57:37.868Z,47.80
2022-09-30T23:00:06.365Z,18.17
2022-09-30T23:02:35.717Z,16.30
2022-09-30T23:05:05.810Z,13.48
2022-09-30T23:07:33.589Z,14.75
2022-09-30T23:10:01.590Z,15.43
2022-09-30T23:12:29.997Z,13.77
2022-09-30T23:14:57.870Z,12.75
2022-09-30T23:17:25.598Z,13.18
2022-09-30T23:19:54.905Z,13.13
2022-09-30T23:22:23.172Z,12.57
2022-09-30T23:24:50.951Z,11.73
2022-09-30T23:27:18.743Z,11.88
2022-09-30T23:29:46.551Z,11.95
2022-09-30T23:32:14.342Z,13.93
2022-09-30T23:34:42.171Z,12.13
2022-09-30T23:37:11.348Z,14.00
2022-09-30T23:39:40.809Z,12.52
2022-09-30T23:42:08.592Z,11.82
2022-09-30T23:44:36.375Z,9.52
2022-09-30T23:47:19.056Z,12.52
2022-09-30T23:49:46.814Z,11.35
2022-09-30T23:52:16.126Z,10.52
2022-09-30T23:54:44.294Z,10.07
2022-09-30T23:57:12.455Z,10.98
2022-09-30T23:59:40.323Z,12.95
